Airfield :
LOGIN :

Register | Disclaimer

   EN    FR    IT 

 










Legend :    VFR   Marginal VFR   IFR   Intensive IFR   Very Intensive IFR
Visi :
Ceiling :
>= 8 km
>= 3000ft
5 to 8 km
1000 to 3000 ft
1500m to 5 km
500 to 1000 ft
800 to 1500m
200 to 500 ft
< 800m
< 200 ft
Symbols :   Thunderstorms  Fog  Heavy snow  Heavy precipitations  Wind > 20 kt
SIGMETs :     Misc.  Thunderstorms  Icing  Turbulence  Mountain Waves  Volcanic Ashes






- Airport Elevation : 6 ft
- IATA code : PSA


LIRP - Galileo Galilei Pisa

CURRENT METAR :
  • 152315Z 11008KT 9999 FEW030 BKN060 12/12 Q1019 NOSIG

EXPIRED METARs :
  • 152245Z 11006KT 9999 FEW030 BKN060 10/10 Q1019 NOSIG
  • 152215Z 13004KT 9999 FEW030 SCT060 10/09 Q1019 NOSIG
  • 152145Z 13004KT 9999 FEW030 10/10 Q1019 NOSIG
  • 152115Z 11006KT 9999 FEW030 10/10 Q1019 NOSIG
  • 152045Z 08005KT 9999 FEW030 11/11 Q1019 NOSIG

TAF TAF LIRP
Valid from the 15 at 18:00 until the 16 at 18:00 UTC


151700Z 1518/1618 11005KT 9999 SCT030 BKN060
TEMPO 1522/1605 5000 BR
PROB40
TEMPO 1603/1618 3000 RA



MET'MAP, your aeronautical weather chart ! - Copyright ORBIFLY December 2007 - Disclaimer

ORBIFLY MET'MAP TEAM :

Programming & Development : Alexandra Zaïnal
Concept & original design : Baudouin d'Aumeries
Assistance for programming : Marc-Olivier Méhu
Technical & hardware support : Manuel Goepfert

Contact : metmap@orbifly.com




SOURCES & CREDITS :

   NOAA